Time;durP1;ratioP1;P1;durP2;ratioP2;P2;SDS_P1;SDS_P2;PMS_P1;PMS_P2;Temp;Humidity;BMP_temperature;BMP_pressure;BME280_temperature;BME280_humidity;BME280_pressure;Samples;Min_cycle;Max_cycle;Signal;HPM_P1;HPM_P2
2021/11/11 00:00:23;;;;;;;;;94.50;75.50;;;;;5.11;68.05;102153.22;4913837;28;45514;-95
2021/11/11 00:02:48;;;;;;;;;90.00;70.75;;;;;5.01;68.34;102142.00;4913859;28;45236;-96
2021/11/11 00:05:17;;;;;;;;;91.25;71.50;;;;;5.04;68.41;102149.16;4936699;28;45514;-95
2021/11/11 00:07:43;;;;;;;;;91.75;69.75;;;;;5.03;68.45;102147.31;4946558;28;47027;-94
2021/11/11 00:10:09;;;;;;;;;94.75;79.25;;;;;5.00;68.09;102139.25;4928432;28;45402;-95
2021/11/11 00:12:35;;;;;;;;;98.00;81.50;;;;;4.98;68.14;102138.19;4929031;28;45313;-95
2021/11/11 00:15:01;;;;;;;;;96.25;80.00;;;;;4.91;68.14;102126.31;4927939;28;46265;-95
2021/11/11 00:17:26;;;;;;;;;102.00;87.00;;;;;4.91;68.26;102124.63;4925588;28;48298;-95
2021/11/11 00:19:52;;;;;;;;;104.00;90.67;;;;;4.96;68.14;102138.06;4938790;28;45798;-95
2021/11/11 00:22:17;;;;;;;;;107.67;86.33;;;;;4.98;69.10;102138.19;4952052;28;45438;-94
2021/11/11 00:24:43;;;;;;;;;104.00;91.67;;;;;5.07;68.71;102143.31;4926818;28;56296;-95
2021/11/11 00:27:08;;;;;;;;;102.33;86.00;;;;;4.96;68.06;102118.91;4943867;28;47460;-94
2021/11/11 00:29:34;;;;;;;;;100.67;82.67;;;;;4.99;68.38;102124.41;4928231;28;45269;-95
2021/11/11 00:31:59;;;;;;;;;102.67;81.67;;;;;4.97;68.41;102121.69;4928132;28;45586;-94
2021/11/11 00:34:24;;;;;;;;;103.33;85.67;;;;;4.98;67.98;102130.38;4926969;28;54583;-94
2021/11/11 00:36:50;;;;;;;;;102.67;88.67;;;;;4.95;68.05;102135.31;4924119;28;68368;-95
2021/11/11 00:39:15;;;;;;;;;110.67;94.67;;;;;4.90;68.06;102125.41;4913762;28;45473;-95
2021/11/11 00:41:41;;;;;;;;;106.33;92.00;;;;;4.97;68.00;102136.38;4927687;28;46107;-95
2021/11/11 00:44:06;;;;;;;;;92.50;74.00;;;;;4.85;67.89;102118.84;4938640;28;45810;-94
2021/11/11 00:46:32;;;;;;;;;107.67;90.67;;;;;4.82;68.25;102115.09;4947092;28;68561;-95
2021/11/11 00:48:57;;;;;;;;;102.67;89.00;;;;;4.79;68.09;102131.31;4928000;28;45564;-95
2021/11/11 00:51:22;;;;;;;;;94.75;75.25;;;;;4.74;68.23;102120.47;4924564;28;45466;-95
2021/11/11 00:53:48;;;;;;;;;101.00;82.00;;;;;4.77;68.62;102138.03;4929654;28;60053;-96
2021/11/11 00:56:13;;;;;;;;;99.00;79.50;;;;;4.73;68.86;102129.06;4923311;28;46765;-95
2021/11/11 00:58:39;;;;;;;;;97.50;77.00;;;;;4.73;68.31;102123.88;4943747;28;45847;-95
2021/11/11 01:01:04;;;;;;;;;97.25;79.25;;;;;4.69;68.52;102114.84;4923918;28;45466;-95
2021/11/11 01:03:34;;;;;;;;;93.50;76.00;;;;;4.66;68.65;102112.00;4910441;28;53761;-95
2021/11/11 01:06:00;;;;;;;;;93.75;73.25;;;;;4.69;68.53;102122.66;4943703;28;47585;-96
2021/11/11 01:08:29;;;;;;;;;95.00;77.75;;;;;4.56;68.42;102096.31;4927844;28;45758;-95
2021/11/11 01:10:54;;;;;;;;;92.00;71.75;;;;;4.65;67.94;102109.22;4936945;28;45434;-95
2021/11/11 01:13:20;;;;;;;;;92.00;71.25;;;;;4.62;68.25;102108.94;4929965;28;45620;-95
2021/11/11 01:15:45;;;;;;;;;91.75;73.25;;;;;4.60;68.46;102097.50;4929302;28;61774;-95
2021/11/11 01:18:10;;;;;;;;;93.25;74.25;;;;;4.55;68.57;102099.69;4909132;28;46104;-95
2021/11/11 01:20:36;;;;;;;;;91.50;69.00;;;;;4.52;68.63;102097.72;4946791;28;51843;-95
2021/11/11 01:23:02;;;;;;;;;89.75;69.25;;;;;4.50;68.86;102096.66;4927367;28;46204;-96
2021/11/11 01:25:28;;;;;;;;;87.00;67.00;;;;;4.52;68.88;102105.50;4932884;28;47341;-95
2021/11/11 01:27:54;;;;;;;;;87.00;66.75;;;;;4.58;69.03;102111.28;4935980;28;45515;-96
2021/11/11 01:30:19;;;;;;;;;93.75;71.25;;;;;4.51;68.90;102097.56;4936748;28;45377;-96
2021/11/11 01:32:45;;;;;;;;;90.75;72.25;;;;;4.52;69.52;102099.38;4918900;28;45615;-95
2021/11/11 01:35:12;;;;;;;;;96.00;77.50;;;;;4.43;68.96;102091.66;4928335;28;50590;-95
2021/11/11 01:37:38;;;;;;;;;95.75;75.25;;;;;4.47;69.33;102105.09;4930769;28;46010;-94
2021/11/11 01:40:06;;;;;;;;;93.50;76.50;;;;;4.44;69.19;102098.69;4928187;28;45379;-95
2021/11/11 01:42:43;;;;;;;;;92.00;70.00;;;;;4.44;69.17;102098.69;4926844;28;45495;-95
2021/11/11 01:45:09;;;;;;;;;95.25;75.00;;;;;4.37;69.05;102081.59;4914588;28;47098;-96
2021/11/11 01:47:36;;;;;;;;;96.00;75.75;;;;;4.39;68.91;102076.53;4945558;28;69502;-94
2021/11/11 01:50:02;;;;;;;;;95.50;75.75;;;;;4.37;69.02;102073.81;4945978;28;45762;-95
2021/11/11 01:52:28;;;;;;;;;98.75;79.50;;;;;4.35;69.03;102065.88;4929795;28;45531;-95
2021/11/11 01:54:53;;;;;;;;;94.25;71.00;;;;;4.35;68.81;102072.75;4945020;28;68499;-95
2021/11/11 01:57:19;;;;;;;;;98.50;81.25;;;;;4.39;68.64;102079.13;4942322;28;58295;-95
2021/11/11 01:59:44;;;;;;;;;97.50;81.25;;;;;4.38;68.89;102079.94;4927562;28;45471;-95
2021/11/11 02:02:10;;;;;;;;;96.25;79.00;;;;;4.35;69.08;102071.09;4930509;28;45316;-95
2021/11/11 02:04:35;;;;;;;;;99.25;74.50;;;;;4.30;68.77;102061.03;4929893;28;50621;-95
2021/11/11 02:07:01;;;;;;;;;99.00;80.50;;;;;4.31;68.63;102066.34;4930322;28;45403;-96
2021/11/11 02:09:26;;;;;;;;;96.00;76.25;;;;;4.40;68.71;102075.78;4961740;28;45340;-95
2021/11/11 02:11:51;;;;;;;;;95.25;75.25;;;;;4.33;68.62;102070.00;4943735;28;50113;-95
2021/11/11 02:14:17;;;;;;;;;98.25;77.75;;;;;4.29;68.42;102069.59;4925798;28;58501;-95
2021/11/11 02:16:42;;;;;;;;;97.25;71.75;;;;;4.30;68.72;102076.63;4910416;28;56378;-95
2021/11/11 02:19:08;;;;;;;;;93.50;71.25;;;;;4.20;68.86;102067.94;4949614;28;66610;-96
2021/11/11 02:21:35;;;;;;;;;93.75;69.50;;;;;4.19;68.90;102060.03;4949807;28;45365;-95
2021/11/11 02:24:00;;;;;;;;;88.25;68.00;;;;;4.12;68.67;102058.56;4930080;28;47430;-95
2021/11/11 02:26:26;;;;;;;;;89.00;66.75;;;;;4.12;68.89;102063.75;4929939;28;45369;-95
2021/11/11 02:28:51;;;;;;;;;88.00;67.25;;;;;4.07;69.49;102067.59;4928903;28;61943;-95
2021/11/11 02:31:17;;;;;;;;;87.00;67.75;;;;;4.12;69.29;102072.44;4945827;28;45442;-95
2021/11/11 02:33:51;;;;;;;;;84.75;67.00;;;;;4.12;69.27;102067.22;4930127;28;48262;-95
2021/11/11 02:36:16;;;;;;;;;86.00;67.00;;;;;4.12;68.98;102061.16;4930328;28;45378;-95
2021/11/11 02:38:42;;;;;;;;;80.00;63.00;;;;;4.09;69.10;102068.66;4963885;28;67750;-95
2021/11/11 02:41:07;;;;;;;;;82.75;64.50;;;;;4.18;69.38;102084.16;4945306;28;45433;-96
2021/11/11 02:43:33;;;;;;;;;84.00;67.25;;;;;4.16;69.36;102083.13;4944309;28;64104;-95
2021/11/11 02:45:58;;;;;;;;;87.50;68.25;;;;;4.10;69.17;102070.47;4929676;28;45360;-95
2021/11/11 02:48:24;;;;;;;;;82.00;64.00;;;;;4.10;69.56;102073.97;4944213;28;45296;-95
2021/11/11 02:50:51;;;;;;;;;87.75;68.50;;;;;4.11;69.71;102078.41;4957887;28;44836;-95
2021/11/11 02:53:16;;;;;;;;;90.50;65.25;;;;;4.14;69.99;102077.78;4969658;28;47252;-94
2021/11/11 02:55:41;;;;;;;;;86.75;65.75;;;;;4.13;69.94;102076.88;4939192;28;48748;-95
2021/11/11 02:58:07;;;;;;;;;89.50;66.50;;;;;4.16;70.02;102072.72;4922975;28;45391;-96
2021/11/11 03:00:42;;;;;;;;;85.25;66.25;;;;;4.12;69.55;102071.53;4942860;28;45435;-95
2021/11/11 03:03:07;;;;;;;;;87.50;66.25;;;;;4.16;69.56;102078.84;4914446;28;46113;-94
2021/11/11 03:05:33;;;;;;;;;85.25;67.75;;;;;4.11;69.68;102074.91;4929200;28;50744;-95
2021/11/11 03:07:58;;;;;;;;;83.75;63.25;;;;;4.12;69.62;102067.22;4926064;28;45626;-96
2021/11/11 03:10:26;;;;;;;;;84.25;66.00;;;;;4.20;69.81;102085.25;4939831;28;45513;-95
2021/11/11 03:12:51;;;;;;;;;86.50;67.00;;;;;4.15;69.61;102068.31;4925186;28;47415;-95
2021/11/11 03:15:17;;;;;;;;;81.50;64.00;;;;;4.26;69.53;102088.41;4927908;28;45511;-95
2021/11/11 03:17:42;;;;;;;;;87.25;67.50;;;;;4.23;69.69;102080.31;4958490;28;45450;-95
2021/11/11 03:20:09;;;;;;;;;87.25;67.00;;;;;4.16;70.33;102067.53;4929118;28;45560;-96
2021/11/11 03:22:34;;;;;;;;;83.50;65.25;;;;;4.21;69.82;102068.88;4945034;28;47470;-95
2021/11/11 03:25:00;;;;;;;;;77.75;62.00;;;;;4.24;69.52;102058.75;4928938;28;47544;-96
2021/11/11 03:27:25;;;;;;;;;83.50;64.75;;;;;4.30;69.93;102072.34;4944711;28;45403;-95
2021/11/11 03:29:51;;;;;;;;;81.25;63.25;;;;;4.27;69.81;102061.66;4928471;28;51686;-94
2021/11/11 03:32:16;;;;;;;;;87.00;66.75;;;;;4.20;69.90;102061.88;4944891;28;47988;-95
2021/11/11 03:34:41;;;;;;;;;83.75;63.50;;;;;4.25;69.58;102063.19;4955950;28;45642;-95
2021/11/11 03:37:07;;;;;;;;;80.75;61.25;;;;;4.28;69.69;102070.38;4933856;28;45464;-96
2021/11/11 03:39:33;;;;;;;;;80.00;60.75;;;;;4.26;69.94;102065.00;4944639;28;45446;-95
2021/11/11 03:41:58;;;;;;;;;81.75;61.00;;;;;4.40;70.52;102089.69;4943888;28;48188;-94
2021/11/11 03:44:24;;;;;;;;;77.75;58.00;;;;;4.43;70.19;102087.34;4941048;28;59195;-95
2021/11/11 03:46:51;;;;;;;;;72.00;56.25;;;;;4.42;70.44;102079.44;4947156;28;45523;-95
2021/11/11 03:49:16;;;;;;;;;75.75;59.75;;;;;4.46;70.02;102081.53;4925232;28;45354;-96
2021/11/11 03:51:42;;;;;;;;;71.00;56.50;;;;;4.43;69.73;102079.56;4918918;28;47325;-95
2021/11/11 03:54:09;;;;;;;;;67.50;56.25;;;;;4.50;70.04;102086.25;4936565;28;45400;-95
2021/11/11 03:56:36;;;;;;;;;78.50;60.50;;;;;4.42;70.19;102064.75;4947309;28;45443;-96
2021/11/11 03:59:01;;;;;;;;;75.00;57.25;;;;;4.59;70.25;102099.16;4932126;28;45620;-96
2021/11/11 04:01:26;;;;;;;;;72.25;57.00;;;;;4.47;70.35;102073.88;4933747;28;48042;-95
2021/11/11 04:03:52;;;;;;;;;38.75;29.75;;;;;4.52;70.16;102068.19;4928199;28;46290;-94
2021/11/11 04:06:17;;;;;;;;;71.25;54.25;;;;;4.57;70.38;102077.31;4943833;28;45404;-95
2021/11/11 04:08:43;;;;;;;;;70.50;58.25;;;;;4.63;70.17;102080.50;4943383;28;66503;-95
2021/11/11 04:11:08;;;;;;;;;73.00;56.50;;;;;4.68;70.47;102083.50;4963296;28;46993;-95
2021/11/11 04:13:34;;;;;;;;;73.00;56.75;;;;;4.72;70.70;102079.47;4931099;28;56062;-95
2021/11/11 04:16:00;;;;;;;;;75.25;56.25;;;;;4.73;69.87;102083.94;4940672;28;63285;-95
2021/11/11 04:18:25;;;;;;;;;69.00;56.25;;;;;4.75;69.98;102092.78;4931383;28;45409;-95
2021/11/11 04:20:52;;;;;;;;;74.25;58.25;;;;;4.71;70.19;102098.47;4944025;28;48271;-95
2021/11/11 04:23:17;;;;;;;;;74.25;58.00;;;;;4.83;69.85;102111.69;4944353;28;45419;-95
2021/11/11 04:28:35;;;;;;;;;74.75;56.25;;;;;4.75;69.98;102111.91;4940754;28;45488;-95
2021/11/11 04:31:05;;;;;;;;;72.75;56.75;;;;;4.80;69.81;102121.03;4927253;28;48189;-95
2021/11/11 04:33:30;;;;;;;;;74.25;57.25;;;;;4.81;69.93;102121.97;4941181;28;45894;-95
2021/11/11 04:36:11;;;;;;;;;72.75;58.00;;;;;4.77;70.03;102125.03;4926675;28;45394;-95
2021/11/11 05:03:05;;;;;;;;;76.50;58.00;;;;;4.85;69.69;102137.06;4948932;28;45372;-95
2021/11/11 05:05:31;;;;;;;;;76.25;57.00;;;;;4.87;69.48;102127.72;4934381;28;45319;-95
2021/11/11 05:07:56;;;;;;;;;75.75;58.75;;;;;4.88;69.66;102141.63;4926667;28;45814;-95
2021/11/11 05:10:22;;;;;;;;;75.00;58.00;;;;;4.80;69.42;102130.53;4935923;28;45778;-94
2021/11/11 05:12:48;;;;;;;;;81.75;61.50;;;;;4.73;69.66;102130.75;4935288;28;48385;-95
2021/11/11 05:15:14;;;;;;;;;82.00;61.00;;;;;4.72;69.57;102140.22;4946155;28;46277;-94
2021/11/11 05:17:41;;;;;;;;;79.75;60.00;;;;;4.77;69.47;102146.78;4927562;28;45736;-94
2021/11/11 05:20:07;;;;;;;;;83.50;66.00;;;;;4.72;69.11;102140.22;4928151;28;45472;-94
2021/11/11 05:22:33;;;;;;;;;78.75;62.75;;;;;4.69;69.97;102135.66;4923639;28;47137;-94
2021/11/11 05:24:58;;;;;;;;;81.00;63.00;;;;;4.72;69.63;102141.91;4917814;28;64209;-95
2021/11/11 05:27:26;;;;;;;;;80.25;63.00;;;;;4.68;69.30;102133.84;4939232;28;51569;-95
2021/11/11 05:29:53;;;;;;;;;81.00;63.00;;;;;4.59;69.14;102122.59;4925762;28;45874;-95
2021/11/11 05:32:18;;;;;;;;;81.00;63.00;;;;;4.61;69.48;102136.66;4927943;28;47862;-95
2021/11/11 05:34:44;;;;;;;;;82.25;63.25;;;;;4.66;69.53;102156.22;4939602;28;45508;-94
2021/11/11 05:37:12;;;;;;;;;76.25;61.00;;;;;4.53;69.56;102135.03;4930389;28;53389;-95
2021/11/11 05:39:37;;;;;;;;;81.00;63.50;;;;;4.52;69.53;102141.00;4932429;28;45532;-95
2021/11/11 05:42:03;;;;;;;;;81.00;65.25;;;;;4.55;69.62;102154.28;4943267;28;69327;-95
2021/11/11 05:44:28;;;;;;;;;78.25;59.75;;;;;4.43;69.35;102139.34;4930824;28;45824;-95
2021/11/11 05:46:54;;;;;;;;;82.75;62.25;;;;;4.54;69.37;102162.84;4910749;28;52239;-95
2021/11/11 05:49:20;;;;;;;;;74.50;59.00;;;;;4.53;69.85;102166.25;4937539;28;45571;-94
2021/11/11 05:51:45;;;;;;;;;83.50;64.75;;;;;4.46;69.62;102150.06;4926371;28;47402;-95
2021/11/11 05:54:10;;;;;;;;;84.25;63.25;;;;;4.52;69.55;102160.13;4926546;28;49055;-95
2021/11/11 05:56:36;;;;;;;;;58.75;47.75;;;;;4.49;69.32;102154.63;4942694;28;46225;-95
2021/11/11 05:59:02;;;;;;;;;74.50;59.75;;;;;4.53;69.61;102167.16;4927182;28;45198;-94
2021/11/11 06:01:28;;;;;;;;;78.75;62.25;;;;;4.50;69.53;102160.75;4934258;28;47011;-94
2021/11/11 06:03:53;;;;;;;;;81.75;61.75;;;;;4.59;69.53;102185.00;4963328;28;45303;-94
2021/11/11 06:06:19;;;;;;;;;85.75;63.25;;;;;4.51;69.53;102167.78;4926269;28;45397;-94
2021/11/11 06:08:45;;;;;;;;;73.25;59.75;;;;;4.53;69.14;102171.44;4923835;28;45433;-95
2021/11/11 06:11:10;;;;;;;;;82.00;62.25;;;;;4.54;69.21;102179.38;4925975;28;55783;-94
2021/11/11 06:13:36;;;;;;;;;79.50;61.00;;;;;4.52;69.64;102191.34;4942346;28;45549;-95
2021/11/11 06:16:01;;;;;;;;;75.50;62.50;;;;;4.42;69.31;102196.44;4923439;28;45404;-96
2021/11/11 06:18:26;;;;;;;;;80.75;64.25;;;;;4.43;69.53;102209.56;4926846;28;45368;-94
2021/11/11 06:21:00;;;;;;;;;78.50;62.25;;;;;4.46;69.76;102214.16;4928496;28;47530;-95
2021/11/11 06:23:26;;;;;;;;;76.00;60.50;;;;;4.44;69.92;102213.09;4931343;28;45349;-95
2021/11/11 06:25:52;;;;;;;;;75.25;59.00;;;;;4.47;70.36;102205.59;4926717;28;45338;-95
2021/11/11 06:28:17;;;;;;;;;72.50;56.00;;;;;4.43;70.27;102209.56;4939835;28;45503;-95
2021/11/11 06:30:42;;;;;;;;;74.75;56.50;;;;;4.49;70.23;102239.53;4930202;28;48904;-96
2021/11/11 06:33:08;;;;;;;;;69.50;54.75;;;;;4.44;70.49;102233.91;4952410;28;68199;-95
2021/11/11 06:35:33;;;;;;;;;73.50;58.00;;;;;4.55;70.26;102254.03;4956546;28;45560;-95
2021/11/11 06:37:59;;;;;;;;;66.25;49.75;;;;;4.51;70.60;102244.09;4970536;28;51017;-96
2021/11/11 06:40:25;;;;;;;;;71.75;57.75;;;;;4.60;70.40;102246.66;4961793;28;48108;-94
2021/11/11 06:42:51;;;;;;;;;73.50;58.75;;;;;4.57;70.16;102235.97;4929643;28;45274;-96
2021/11/11 06:45:18;;;;;;;;;66.75;52.50;;;;;4.63;70.17;102251.25;4929930;28;52716;-95
2021/11/11 06:47:43;;;;;;;;;69.25;53.00;;;;;4.68;70.24;102261.31;4929931;28;45271;-95
2021/11/11 06:50:09;;;;;;;;;67.75;50.50;;;;;4.74;70.23;102260.06;4929008;28;63489;-94
2021/11/11 06:52:34;;;;;;;;;64.25;49.00;;;;;4.80;69.96;102258.94;4929839;28;45391;-95
2021/11/11 06:55:00;;;;;;;;;66.25;54.25;;;;;4.83;69.64;102257.38;4926580;28;45455;-95
2021/11/11 06:57:25;;;;;;;;;66.50;53.50;;;;;4.84;70.06;102264.44;4913898;28;45635;-95
2021/11/11 06:59:51;;;;;;;;;69.00;52.25;;;;;4.80;69.58;102250.22;4959766;28;54999;-94
2021/11/11 07:02:17;;;;;;;;;69.25;52.50;;;;;4.86;69.71;102273.28;4946001;28;45410;-94
2021/11/11 07:04:43;;;;;;;;;65.50;53.75;;;;;4.92;70.11;102284.28;4929967;28;45509;-95
2021/11/11 07:07:08;;;;;;;;;69.00;54.25;;;;;4.86;69.53;102256.00;4945454;28;45513;-94
2021/11/11 07:09:33;;;;;;;;;67.25;50.25;;;;;4.99;69.78;102272.75;4924674;28;68962;-82
2021/11/11 07:11:59;;;;;;;;;71.00;53.75;;;;;5.02;69.50;102281.78;4973702;28;45429;-82
2021/11/11 07:14:24;;;;;;;;;69.25;53.50;;;;;5.03;69.67;102278.38;4976694;28;64920;-82
2021/11/11 07:16:50;;;;;;;;;70.00;54.00;;;;;5.09;69.68;102275.44;4955475;28;45787;-83
2021/11/11 07:19:15;;;;;;;;;71.50;56.25;;;;;5.14;69.52;102282.00;4976645;28;45655;-82
2021/11/11 07:21:40;;;;;;;;;76.50;58.50;;;;;5.14;69.76;102275.88;4986682;28;45481;-82
2021/11/11 07:24:06;;;;;;;;;76.50;60.25;;;;;5.21;69.56;102280.84;4972162;28;45478;-83
2021/11/11 07:26:32;;;;;;;;;74.50;59.25;;;;;5.31;69.85;102289.53;4988647;28;67497;-82
2021/11/11 07:28:57;;;;;;;;;74.75;58.00;;;;;5.35;69.72;102282.13;4970589;28;47601;-82
2021/11/11 07:31:25;;;;;;;;;72.75;57.50;;;;;5.43;69.74;102280.25;4981238;28;45317;-82
2021/11/11 07:33:50;;;;;;;;;81.25;61.00;;;;;5.50;69.29;102276.50;4972099;28;45415;-82
2021/11/11 07:36:16;;;;;;;;;80.75;63.75;;;;;5.54;69.10;102282.91;4972035;28;46197;-83
2021/11/11 07:38:41;;;;;;;;;92.25;68.25;;;;;5.53;69.40;102275.84;4956172;28;46202;-82
2021/11/11 07:41:07;;;;;;;;;83.00;63.00;;;;;5.55;69.21;102274.31;4951759;28;67858;-83
2021/11/11 07:43:32;;;;;;;;;88.00;69.00;;;;;5.59;69.27;102269.50;4974297;28;45474;-83
2021/11/11 07:46:03;;;;;;;;;86.00;66.50;;;;;5.66;69.15;102280.50;4955093;28;45339;-83
2021/11/11 07:48:28;;;;;;;;;91.75;71.00;;;;;5.69;68.74;102280.78;4969202;28;46121;-83
2021/11/11 07:50:54;;;;;;;;;97.75;82.50;;;;;5.69;68.98;102273.88;4954280;28;67512;-83
2021/11/11 07:53:19;;;;;;;;;89.75;70.00;;;;;5.74;69.31;102278.56;4976566;28;45425;-82
2021/11/11 07:55:45;;;;;;;;;94.50;78.50;;;;;5.74;68.84;102268.16;4974119;28;53671;-83
2021/11/11 07:58:11;;;;;;;;;91.25;68.00;;;;;5.82;69.07;102278.47;4974293;28;46458;-83
2021/11/11 08:00:38;;;;;;;;;87.25;68.25;;;;;5.84;68.92;102264.69;4956949;28;45585;-83
2021/11/11 08:03:03;;;;;;;;;94.50;71.75;;;;;5.89;68.96;102263.41;4971336;28;45468;-83
2021/11/11 08:05:29;;;;;;;;;90.25;68.00;;;;;5.95;68.81;102263.03;4983536;28;45431;-83
2021/11/11 08:07:54;;;;;;;;;93.75;75.50;;;;;6.02;68.83;102278.44;4960932;28;46044;-83
2021/11/11 08:10:20;;;;;;;;;88.25;68.75;;;;;6.06;68.92;102272.72;4970922;28;45621;-83
2021/11/11 08:12:46;;;;;;;;;93.25;69.50;;;;;6.06;68.91;102266.56;4969773;28;45444;-82
2021/11/11 08:15:11;;;;;;;;;87.50;67.25;;;;;6.10;68.16;102256.63;4970343;28;45286;-83
2021/11/11 08:17:37;;;;;;;;;94.50;76.75;;;;;6.14;68.71;102252.56;4959683;28;67748;-83
2021/11/11 08:20:03;;;;;;;;;95.00;74.00;;;;;6.18;68.21;102256.38;4959342;28;45400;-83
2021/11/11 08:22:28;;;;;;;;;87.75;69.50;;;;;6.21;67.83;102260.13;4959182;28;46444;-83
2021/11/11 08:24:54;;;;;;;;;92.00;72.25;;;;;6.23;67.81;102258.59;4973418;28;45661;-83
2021/11/11 08:27:20;;;;;;;;;88.75;69.00;;;;;6.28;68.48;102263.28;4971316;28;46060;-82
2021/11/11 08:29:45;;;;;;;;;86.75;68.00;;;;;6.26;68.10;102252.75;4973459;28;45773;-82
2021/11/11 08:32:12;;;;;;;;;91.75;71.25;;;;;6.29;68.23;102254.72;4958185;28;45424;-84
2021/11/11 08:34:37;;;;;;;;;90.50;69.00;;;;;6.25;68.09;102254.44;4955664;28;45414;-82
2021/11/11 08:37:03;;;;;;;;;90.00;71.75;;;;;6.28;67.96;102248.56;4956898;28;48178;-82
2021/11/11 08:39:28;;;;;;;;;91.75;68.75;;;;;6.28;68.30;102248.56;4976484;28;45250;-83
2021/11/11 08:41:54;;;;;;;;;95.75;74.25;;;;;6.36;67.92;102254.47;4949582;28;45389;-86
2021/11/11 08:44:20;;;;;;;;;91.25;71.75;;;;;6.35;68.33;102239.56;4941998;28;45512;-84
2021/11/11 08:46:46;;;;;;;;;84.75;65.75;;;;;6.39;67.92;102245.97;4972716;28;46368;-85
2021/11/11 08:49:13;;;;;;;;;90.25;67.75;;;;;6.39;67.86;102238.16;4972667;28;45805;-85
2021/11/11 08:51:39;;;;;;;;;88.00;68.25;;;;;6.36;68.00;102239.72;4954890;28;45762;-85
2021/11/11 08:54:06;;;;;;;;;90.50;70.50;;;;;6.40;67.76;102225.25;4965761;28;45395;-85
2021/11/11 08:56:31;;;;;;;;;90.75;70.75;;;;;6.42;67.98;102220.13;4976594;28;45423;-85
2021/11/11 08:58:59;;;;;;;;;90.75;69.00;;;;;6.48;67.99;102213.78;4965215;28;45519;-85
2021/11/11 09:01:24;;;;;;;;;87.75;70.00;;;;;6.52;67.65;102211.44;4963319;28;45570;-85
2021/11/11 09:03:50;;;;;;;;;89.00;69.25;;;;;6.57;67.72;102210.13;4954521;28;60358;-84
2021/11/11 09:06:15;;;;;;;;;92.50;70.25;;;;;6.56;67.85;102213.50;4971737;28;46219;-84
2021/11/11 09:08:41;;;;;;;;;87.50;68.75;;;;;6.56;67.63;102213.50;4970365;28;66437;-86
2021/11/11 09:11:06;;;;;;;;;89.75;69.25;;;;;6.52;68.44;102208.84;4951543;28;46176;-84
2021/11/11 09:13:32;;;;;;;;;89.00;69.25;;;;;6.62;67.99;102214.06;4972069;28;45481;-84
2021/11/11 09:15:58;;;;;;;;;93.00;76.75;;;;;6.67;68.13;102211.84;4962786;28;45654;-84
2021/11/11 09:18:23;;;;;;;;;92.25;71.00;;;;;6.66;68.18;102213.53;4971169;28;45550;-84
2021/11/11 09:20:49;;;;;;;;;92.25;74.00;;;;;6.73;67.99;102214.03;4956312;28;45548;-84
2021/11/11 09:23:14;;;;;;;;;92.25;76.50;;;;;6.76;67.98;102220.44;4983395;28;59576;-84
2021/11/11 09:25:40;;;;;;;;;89.50;72.75;;;;;6.79;67.24;102205.03;4958709;28;46308;-85
2021/11/11 09:28:05;;;;;;;;;92.00;72.00;;;;;6.88;68.05;102211.81;4968637;28;45512;-86
2021/11/11 09:30:33;;;;;;;;;89.00;73.50;;;;;6.92;68.21;102204.38;4956865;28;45442;-85
2021/11/11 09:32:59;;;;;;;;;88.75;69.75;;;;;7.03;68.44;102220.94;4953873;28;45451;-84
2021/11/11 09:35:26;;;;;;;;;91.00;73.00;;;;;7.12;68.35;102217.25;4971271;28;46369;-83
2021/11/11 09:37:51;;;;;;;;;94.75;76.00;;;;;7.11;68.00;102210.22;4956814;28;45593;-83
2021/11/11 09:40:19;;;;;;;;;96.75;80.00;;;;;7.20;68.15;102212.69;4967833;28;68439;-83
2021/11/11 09:42:45;;;;;;;;;93.25;74.25;;;;;7.29;68.47;102209.94;4971446;28;45753;-82
2021/11/11 09:45:12;;;;;;;;;102.00;86.50;;;;;7.34;67.96;102203.38;4957541;28;45597;-84
2021/11/11 09:47:37;;;;;;;;;94.25;78.25;;;;;7.46;68.21;102207.00;4982205;28;45480;-83
2021/11/11 09:50:04;;;;;;;;;96.25;79.50;;;;;7.49;67.86;102203.72;4945437;28;65341;-83
2021/11/11 09:52:30;;;;;;;;;94.50;78.00;;;;;7.58;67.60;102217.53;4950918;28;46430;-83
2021/11/11 10:00:24;;;;;;;;;91.75;78.50;;;;;7.76;65.81;102219.81;4957791;28;45603;-83
2021/11/11 10:02:54;;;;;;;;;96.50;77.25;;;;;7.84;66.62;102228.28;4972178;28;45941;-84
2021/11/11 10:05:19;;;;;;;;;97.00;84.00;;;;;7.90;66.90;102225.25;4937659;28;45570;-86
2021/11/11 10:07:44;;;;;;;;;95.00;80.25;;;;;7.91;66.83;102217.50;4970546;28;45529;-86
2021/11/11 10:10:13;;;;;;;;;96.00;82.50;;;;;7.98;67.06;102218.94;4956228;28;60800;-85
2021/11/11 10:12:38;;;;;;;;;94.00;83.00;;;;;8.03;66.63;102211.44;4923717;28;45520;-86
2021/11/11 10:15:09;;;;;;;;;97.50;82.25;;;;;8.08;66.60;102210.13;4973970;28;53148;-84
2021/11/11 10:17:43;;;;;;;;;97.00;82.50;;;;;8.14;66.95;102213.19;4976016;28;45684;-85
2021/11/11 10:20:10;;;;;;;;;97.00;81.00;;;;;8.18;66.79;102214.38;4974895;28;45499;-86
2021/11/11 10:22:37;;;;;;;;;94.00;79.25;;;;;8.21;66.42;102212.00;4974828;28;45382;-87
2021/11/11 10:25:05;;;;;;;;;99.75;85.00;;;;;8.27;66.59;102208.97;4955153;28;45574;-87
2021/11/11 10:30:15;;;;;;;;;92.75;76.25;;;;;8.38;66.18;102192.38;4954901;28;45750;-86
2021/11/11 10:33:06;;;;;;;;;91.00;75.75;;;;;8.44;66.32;102181.47;4975437;28;45362;-85
2021/11/11 10:35:33;;;;;;;;;90.00;73.50;;;;;8.44;66.46;102165.78;4967037;28;45592;-86
2021/11/11 10:38:02;;;;;;;;;94.25;82.75;;;;;8.49;66.22;102155.66;4972984;28;45531;-86
2021/11/11 10:40:38;;;;;;;;;97.25;83.75;;;;;8.57;66.23;102164.09;4970881;28;45483;-85
2021/11/11 10:43:06;;;;;;;;;93.50;77.50;;;;;8.60;66.12;102149.59;4955231;28;45472;-85
2021/11/11 10:45:33;;;;;;;;;91.50;80.25;;;;;8.66;66.06;102153.47;4971541;28;45626;-87
2021/11/11 10:48:04;;;;;;;;;88.75;76.50;;;;;8.71;66.29;102160.84;4973116;28;48199;-86
2021/11/11 10:50:34;;;;;;;;;90.00;77.25;;;;;8.81;65.77;102170.31;4957062;28;45427;-86
2021/11/11 10:53:04;;;;;;;;;92.50;79.00;;;;;8.83;64.81;102171.38;4971527;28;45573;-85
2021/11/11 10:55:31;;;;;;;;;96.75;84.75;;;;;8.88;64.92;102173.41;4972368;28;46640;-85
2021/11/11 10:58:03;;;;;;;;;92.25;80.00;;;;;8.94;65.41;102164.28;4939315;28;45644;-87
2021/11/11 11:00:47;;;;;;;;;92.25;78.25;;;;;9.04;65.41;102167.63;4971472;28;45378;-86
2021/11/11 11:03:20;;;;;;;;;90.00;74.50;;;;;9.09;65.05;102162.72;4967108;28;45604;-86
2021/11/11 11:05:51;;;;;;;;;90.00;72.25;;;;;9.15;64.69;102169.31;4956392;28;46652;-86
2021/11/11 11:08:27;;;;;;;;;91.50;78.00;;;;;9.18;65.15;102159.84;4955888;28;45458;-87
2021/11/11 11:10:58;;;;;;;;;96.25;82.50;;;;;9.24;64.91;102156.00;4955574;28;45645;-86
2021/11/11 11:13:29;;;;;;;;;90.50;74.50;;;;;9.28;64.80;102149.25;4940477;28;45668;-86
2021/11/11 11:16:02;;;;;;;;;87.50;72.00;;;;;9.34;64.86;102149.72;4964787;28;46241;-86
2021/11/11 11:18:33;;;;;;;;;86.75;73.00;;;;;9.43;64.49;102149.47;4955234;28;46136;-87
2021/11/11 11:21:02;;;;;;;;;86.25;66.50;;;;;9.48;64.86;102144.59;4940781;28;45646;-86
2021/11/11 11:23:34;;;;;;;;;88.25;71.00;;;;;9.50;64.54;102135.13;4973693;28;45502;-86
2021/11/11 11:26:07;;;;;;;;;85.25;65.00;;;;;9.50;64.09;102124.63;4956471;28;45429;-87
2021/11/11 11:28:33;;;;;;;;;82.75;65.00;;;;;9.55;63.82;102124.97;4951600;28;45563;-86
2021/11/11 11:31:00;;;;;;;;;82.50;63.00;;;;;9.57;64.02;102123.34;4970115;28;45490;-86
2021/11/11 11:33:38;;;;;;;;;80.25;62.25;;;;;9.63;64.12;102121.19;4970358;28;45478;-86
2021/11/11 11:36:04;;;;;;;;;81.50;61.00;;;;;9.69;64.09;102116.34;4954077;28;46184;-85
2021/11/11 11:38:30;;;;;;;;;81.75;61.00;;;;;9.75;63.83;102117.59;4973310;28;45535;-86
2021/11/11 11:40:55;;;;;;;;;78.00;60.50;;;;;9.75;63.76;102108.03;4954392;28;45593;-85
2021/11/11 11:43:31;;;;;;;;;75.75;57.75;;;;;9.80;63.10;102114.50;4955017;28;45450;-86
2021/11/11 11:46:11;;;;;;;;;71.75;57.75;;;;;9.83;62.92;102116.44;4970308;28;45486;-86
2021/11/11 11:48:37;;;;;;;;;71.50;56.75;;;;;9.88;63.29;102124.63;4970382;28;45514;-85